sensor_id;sensor_type;location;lat;lon;timestamp;temperature;humidity
56336;DHT22;42241;53.510;10.170;2022-12-07T00:00:15;3.10;99.90
56336;DHT22;42241;53.510;10.170;2022-12-07T00:02:41;3.20;99.90
56336;DHT22;42241;53.510;10.170;2022-12-07T00:05:07;3.20;99.90
56336;DHT22;42241;53.510;10.170;2022-12-07T00:07:32;3.20;99.90
56336;DHT22;42241;53.510;10.170;2022-12-07T00:09:58;3.30;99.90
56336;DHT22;42241;53.510;10.170;2022-12-07T00:12:23;3.30;99.90
56336;DHT22;42241;53.510;10.170;2022-12-07T00:14:50;3.40;99.90
56336;DHT22;42241;53.510;10.170;2022-12-07T00:17:15;3.40;99.90
56336;DHT22;42241;53.510;10.170;2022-12-07T00:19:41;3.40;99.90
56336;DHT22;42241;53.510;10.170;2022-12-07T00:22:06;3.40;99.90
56336;DHT22;42241;53.510;10.170;2022-12-07T00:24:32;3.40;99.90
56336;DHT22;42241;53.510;10.170;2022-12-07T00:26:57;3.50;99.90
56336;DHT22;42241;53.510;10.170;2022-12-07T00:29:23;3.50;99.90
56336;DHT22;42241;53.510;10.170;2022-12-07T00:31:48;3.50;99.90
56336;DHT22;42241;53.510;10.170;2022-12-07T00:34:18;3.50;99.90
56336;DHT22;42241;53.510;10.170;2022-12-07T00:36:44;3.60;99.90
56336;DHT22;42241;53.510;10.170;2022-12-07T00:39:09;3.60;99.90
56336;DHT22;42241;53.510;10.170;2022-12-07T00:41:35;3.60;99.90
56336;DHT22;42241;53.510;10.170;2022-12-07T00:44:00;3.60;99.90
56336;DHT22;42241;53.510;10.170;2022-12-07T00:46:26;3.60;99.90
56336;DHT22;42241;53.510;10.170;2022-12-07T00:48:52;3.60;99.90
56336;DHT22;42241;53.510;10.170;2022-12-07T00:51:19;3.60;99.90
56336;DHT22;42241;53.510;10.170;2022-12-07T00:53:45;3.60;99.90
56336;DHT22;42241;53.510;10.170;2022-12-07T00:56:18;3.50;99.90
56336;DHT22;42241;53.510;10.170;2022-12-07T00:58:44;3.50;99.90
56336;DHT22;42241;53.510;10.170;2022-12-07T01:01:10;3.40;99.90
56336;DHT22;42241;53.510;10.170;2022-12-07T01:03:35;3.40;99.90
56336;DHT22;42241;53.510;10.170;2022-12-07T01:06:01;3.40;99.90
56336;DHT22;42241;53.510;10.170;2022-12-07T01:08:27;3.50;99.90
56336;DHT22;42241;53.510;10.170;2022-12-07T01:11:03;3.50;99.90
56336;DHT22;42241;53.510;10.170;2022-12-07T01:13:30;3.50;99.90
56336;DHT22;42241;53.510;10.170;2022-12-07T01:15:56;3.50;99.90
56336;DHT22;42241;53.510;10.170;2022-12-07T01:18:22;3.50;99.90
56336;DHT22;42241;53.510;10.170;2022-12-07T01:20:56;3.50;99.90
56336;DHT22;42241;53.510;10.170;2022-12-07T01:23:22;3.50;99.90
56336;DHT22;42241;53.510;10.170;2022-12-07T01:25:53;3.60;99.90
56336;DHT22;42241;53.510;10.170;2022-12-07T01:28:19;3.60;99.90
56336;DHT22;42241;53.510;10.170;2022-12-07T01:30:44;3.60;99.90
56336;DHT22;42241;53.510;10.170;2022-12-07T01:33:10;3.60;99.90
56336;DHT22;42241;53.510;10.170;2022-12-07T01:35:35;3.60;99.90
56336;DHT22;42241;53.510;10.170;2022-12-07T01:38:01;3.60;99.90
56336;DHT22;42241;53.510;10.170;2022-12-07T01:40:26;3.60;99.90
56336;DHT22;42241;53.510;10.170;2022-12-07T01:42:52;3.60;99.90
56336;DHT22;42241;53.510;10.170;2022-12-07T01:47:47;3.50;99.90
56336;DHT22;42241;53.510;10.170;2022-12-07T01:50:13;3.50;99.90
56336;DHT22;42241;53.510;10.170;2022-12-07T01:52:39;3.50;99.90
56336;DHT22;42241;53.510;10.170;2022-12-07T01:55:08;3.50;99.90
56336;DHT22;42241;53.510;10.170;2022-12-07T01:57:35;3.60;99.90
56336;DHT22;42241;53.510;10.170;2022-12-07T02:00:03;3.60;99.90
56336;DHT22;42241;53.510;10.170;2022-12-07T02:02:36;3.60;99.90
56336;DHT22;42241;53.510;10.170;2022-12-07T02:05:03;3.60;99.90
56336;DHT22;42241;53.510;10.170;2022-12-07T02:07:29;3.60;99.90
56336;DHT22;42241;53.510;10.170;2022-12-07T02:09:56;3.60;99.90
56336;DHT22;42241;53.510;10.170;2022-12-07T02:12:22;3.60;99.90
56336;DHT22;42241;53.510;10.170;2022-12-07T02:14:49;3.60;99.90
56336;DHT22;42241;53.510;10.170;2022-12-07T02:18:00;3.70;99.90
56336;DHT22;42241;53.510;10.170;2022-12-07T02:25:20;3.70;99.90
56336;DHT22;42241;53.510;10.170;2022-12-07T02:30:33;3.50;99.90
56336;DHT22;42241;53.510;10.170;2022-12-07T02:33:12;3.40;99.90
56336;DHT22;42241;53.510;10.170;2022-12-07T02:41:06;3.20;99.90
56336;DHT22;42241;53.510;10.170;2022-12-07T02:43:43;3.20;99.90
56336;DHT22;42241;53.510;10.170;2022-12-07T02:46:17;3.20;99.90
56336;DHT22;42241;53.510;10.170;2022-12-07T02:48:45;3.10;99.90
56336;DHT22;42241;53.510;10.170;2022-12-07T02:51:11;3.10;99.90
56336;DHT22;42241;53.510;10.170;2022-12-07T02:53:38;3.00;99.90
56336;DHT22;42241;53.510;10.170;2022-12-07T03:01:45;3.00;99.90
56336;DHT22;42241;53.510;10.170;2022-12-07T03:06:56;3.10;99.90
56336;DHT22;42241;53.510;10.170;2022-12-07T03:12:00;3.20;99.90
56336;DHT22;42241;53.510;10.170;2022-12-07T03:14:36;3.20;99.90
56336;DHT22;42241;53.510;10.170;2022-12-07T03:19:30;3.10;99.90
56336;DHT22;42241;53.510;10.170;2022-12-07T03:21:57;3.00;99.90
56336;DHT22;42241;53.510;10.170;2022-12-07T03:24:25;3.00;99.90
56336;DHT22;42241;53.510;10.170;2022-12-07T03:26:52;3.00;99.90
56336;DHT22;42241;53.510;10.170;2022-12-07T03:29:24;2.90;99.90
56336;DHT22;42241;53.510;10.170;2022-12-07T03:31:55;2.90;99.90
56336;DHT22;42241;53.510;10.170;2022-12-07T03:34:34;2.90;99.90
56336;DHT22;42241;53.510;10.170;2022-12-07T03:37:08;2.90;99.90
56336;DHT22;42241;53.510;10.170;2022-12-07T03:39:56;2.90;99.90
56336;DHT22;42241;53.510;10.170;2022-12-07T03:42:22;2.80;99.90
56336;DHT22;42241;53.510;10.170;2022-12-07T03:44:48;2.80;99.90
56336;DHT22;42241;53.510;10.170;2022-12-07T03:47:29;2.80;99.90
56336;DHT22;42241;53.510;10.170;2022-12-07T03:50:02;2.80;99.90
56336;DHT22;42241;53.510;10.170;2022-12-07T03:55:20;2.70;99.90
56336;DHT22;42241;53.510;10.170;2022-12-07T03:57:45;2.70;99.90
56336;DHT22;42241;53.510;10.170;2022-12-07T04:02:59;2.70;99.90
56336;DHT22;42241;53.510;10.170;2022-12-07T04:05:24;2.60;99.90
56336;DHT22;42241;53.510;10.170;2022-12-07T04:07:50;2.70;99.90
56336;DHT22;42241;53.510;10.170;2022-12-07T04:10:16;2.60;99.90
56336;DHT22;42241;53.510;10.170;2022-12-07T04:12:41;2.60;99.90
56336;DHT22;42241;53.510;10.170;2022-12-07T04:15:07;2.60;99.90
56336;DHT22;42241;53.510;10.170;2022-12-07T04:17:33;2.60;99.90
56336;DHT22;42241;53.510;10.170;2022-12-07T04:19:59;2.60;99.90
56336;DHT22;42241;53.510;10.170;2022-12-07T04:22:24;2.60;99.90
56336;DHT22;42241;53.510;10.170;2022-12-07T04:24:50;2.60;99.90
56336;DHT22;42241;53.510;10.170;2022-12-07T04:27:15;2.60;99.90
56336;DHT22;42241;53.510;10.170;2022-12-07T04:29:41;2.60;99.90
56336;DHT22;42241;53.510;10.170;2022-12-07T04:32:06;2.60;99.90
56336;DHT22;42241;53.510;10.170;2022-12-07T04:34:32;2.60;99.90
56336;DHT22;42241;53.510;10.170;2022-12-07T04:36:58;2.50;99.90
56336;DHT22;42241;53.510;10.170;2022-12-07T04:39:27;2.50;99.90
56336;DHT22;42241;53.510;10.170;2022-12-07T04:41:53;2.50;99.90
56336;DHT22;42241;53.510;10.170;2022-12-07T04:44:19;2.50;99.90
56336;DHT22;42241;53.510;10.170;2022-12-07T04:46:45;2.50;99.90
56336;DHT22;42241;53.510;10.170;2022-12-07T04:49:11;2.40;99.90
56336;DHT22;42241;53.510;10.170;2022-12-07T04:51:36;2.40;99.90
56336;DHT22;42241;53.510;10.170;2022-12-07T04:54:02;2.40;99.90
56336;DHT22;42241;53.510;10.170;2022-12-07T04:56:28;2.40;99.90
56336;DHT22;42241;53.510;10.170;2022-12-07T04:58:53;2.40;99.90
56336;DHT22;42241;53.510;10.170;2022-12-07T05:01:19;2.40;99.90
56336;DHT22;42241;53.510;10.170;2022-12-07T05:03:44;2.30;99.90
56336;DHT22;42241;53.510;10.170;2022-12-07T05:12:04;2.20;99.90
56336;DHT22;42241;53.510;10.170;2022-12-07T05:14:29;2.20;99.90
56336;DHT22;42241;53.510;10.170;2022-12-07T05:16:55;2.20;99.90
56336;DHT22;42241;53.510;10.170;2022-12-07T05:19:20;2.20;99.90
56336;DHT22;42241;53.510;10.170;2022-12-07T05:21:46;2.20;99.90
56336;DHT22;42241;53.510;10.170;2022-12-07T05:24:12;2.20;99.90
56336;DHT22;42241;53.510;10.170;2022-12-07T05:26:38;2.20;99.90
56336;DHT22;42241;53.510;10.170;2022-12-07T05:29:04;2.20;99.90
56336;DHT22;42241;53.510;10.170;2022-12-07T05:31:29;2.30;99.90
56336;DHT22;42241;53.510;10.170;2022-12-07T05:33:57;2.30;99.90
56336;DHT22;42241;53.510;10.170;2022-12-07T05:36:23;2.30;99.90
56336;DHT22;42241;53.510;10.170;2022-12-07T05:38:48;2.30;99.90
56336;DHT22;42241;53.510;10.170;2022-12-07T05:41:15;2.30;99.90
56336;DHT22;42241;53.510;10.170;2022-12-07T05:44:07;2.20;99.90
56336;DHT22;42241;53.510;10.170;2022-12-07T05:46:32;2.20;99.90
56336;DHT22;42241;53.510;10.170;2022-12-07T05:48:58;2.20;99.90
56336;DHT22;42241;53.510;10.170;2022-12-07T05:51:24;2.20;99.90
56336;DHT22;42241;53.510;10.170;2022-12-07T05:53:49;2.20;99.90
56336;DHT22;42241;53.510;10.170;2022-12-07T05:56:15;2.20;99.90
56336;DHT22;42241;53.510;10.170;2022-12-07T05:58:40;2.20;99.90
56336;DHT22;42241;53.510;10.170;2022-12-07T06:01:24;2.20;99.90
56336;DHT22;42241;53.510;10.170;2022-12-07T06:03:50;2.30;99.90
56336;DHT22;42241;53.510;10.170;2022-12-07T06:06:15;2.30;99.90
56336;DHT22;42241;53.510;10.170;2022-12-07T06:08:41;2.30;99.90
56336;DHT22;42241;53.510;10.170;2022-12-07T06:11:08;2.30;99.90
56336;DHT22;42241;53.510;10.170;2022-12-07T06:13:53;2.20;99.90
56336;DHT22;42241;53.510;10.170;2022-12-07T06:16:18;2.20;99.90
56336;DHT22;42241;53.510;10.170;2022-12-07T06:18:44;2.20;99.90
56336;DHT22;42241;53.510;10.170;2022-12-07T06:21:09;2.20;99.90
56336;DHT22;42241;53.510;10.170;2022-12-07T06:23:35;2.10;99.90
56336;DHT22;42241;53.510;10.170;2022-12-07T06:26:00;2.10;99.90
56336;DHT22;42241;53.510;10.170;2022-12-07T06:28:26;2.10;99.90
56336;DHT22;42241;53.510;10.170;2022-12-07T06:31:03;2.10;99.90
56336;DHT22;42241;53.510;10.170;2022-12-07T06:33:28;2.10;99.90
56336;DHT22;42241;53.510;10.170;2022-12-07T06:35:54;2.00;99.90
56336;DHT22;42241;53.510;10.170;2022-12-07T06:38:20;2.00;99.90
56336;DHT22;42241;53.510;10.170;2022-12-07T06:40:45;2.10;99.90
56336;DHT22;42241;53.510;10.170;2022-12-07T06:43:11;2.10;99.90
56336;DHT22;42241;53.510;10.170;2022-12-07T06:45:40;2.00;99.90
56336;DHT22;42241;53.510;10.170;2022-12-07T06:48:05;2.10;99.90
56336;DHT22;42241;53.510;10.170;2022-12-07T06:50:31;2.00;99.90
56336;DHT22;42241;53.510;10.170;2022-12-07T06:52:56;2.00;99.90
56336;DHT22;42241;53.510;10.170;2022-12-07T06:55:22;2.00;99.90
56336;DHT22;42241;53.510;10.170;2022-12-07T06:57:47;2.00;99.90
56336;DHT22;42241;53.510;10.170;2022-12-07T07:00:13;2.00;99.90
56336;DHT22;42241;53.510;10.170;2022-12-07T07:02:39;2.00;99.90
56336;DHT22;42241;53.510;10.170;2022-12-07T07:05:04;2.00;99.90
56336;DHT22;42241;53.510;10.170;2022-12-07T07:07:30;2.00;99.90
56336;DHT22;42241;53.510;10.170;2022-12-07T07:09:56;2.10;99.90
56336;DHT22;42241;53.510;10.170;2022-12-07T07:12:21;2.10;99.90
56336;DHT22;42241;53.510;10.170;2022-12-07T07:14:47;2.10;99.90
56336;DHT22;42241;53.510;10.170;2022-12-07T07:17:12;2.20;99.90
56336;DHT22;42241;53.510;10.170;2022-12-07T07:19:38;2.20;99.90
56336;DHT22;42241;53.510;10.170;2022-12-07T07:22:03;2.20;99.90
56336;DHT22;42241;53.510;10.170;2022-12-07T07:24:29;2.20;99.90
56336;DHT22;42241;53.510;10.170;2022-12-07T07:26:55;2.20;99.90
56336;DHT22;42241;53.510;10.170;2022-12-07T07:29:20;2.30;99.90
56336;DHT22;42241;53.510;10.170;2022-12-07T07:31:49;2.30;99.90
56336;DHT22;42241;53.510;10.170;2022-12-07T07:34:15;2.30;99.90
56336;DHT22;42241;53.510;10.170;2022-12-07T07:36:40;2.40;99.90
56336;DHT22;42241;53.510;10.170;2022-12-07T07:39:06;2.40;99.90
56336;DHT22;42241;53.510;10.170;2022-12-07T07:41:32;2.40;99.90
56336;DHT22;42241;53.510;10.170;2022-12-07T07:43:57;2.40;99.90
56336;DHT22;42241;53.510;10.170;2022-12-07T07:46:23;2.50;99.90
56336;DHT22;42241;53.510;10.170;2022-12-07T07:48:48;2.50;99.90
56336;DHT22;42241;53.510;10.170;2022-12-07T07:51:14;2.50;99.90
56336;DHT22;42241;53.510;10.170;2022-12-07T07:53:42;2.50;99.90
56336;DHT22;42241;53.510;10.170;2022-12-07T07:56:07;2.60;99.90
56336;DHT22;42241;53.510;10.170;2022-12-07T07:58:33;2.60;99.90
56336;DHT22;42241;53.510;10.170;2022-12-07T08:01:05;2.60;99.90
56336;DHT22;42241;53.510;10.170;2022-12-07T08:03:31;2.70;99.90
56336;DHT22;42241;53.510;10.170;2022-12-07T08:05:56;2.70;99.90
56336;DHT22;42241;53.510;10.170;2022-12-07T08:08:24;2.70;99.90
56336;DHT22;42241;53.510;10.170;2022-12-07T08:10:50;2.80;99.90
56336;DHT22;42241;53.510;10.170;2022-12-07T08:13:16;2.70;99.90
56336;DHT22;42241;53.510;10.170;2022-12-07T08:15:45;2.80;99.90
56336;DHT22;42241;53.510;10.170;2022-12-07T08:18:11;2.80;99.90
56336;DHT22;42241;53.510;10.170;2022-12-07T08:20:37;2.80;99.90
56336;DHT22;42241;53.510;10.170;2022-12-07T08:23:03;2.80;99.90
56336;DHT22;42241;53.510;10.170;2022-12-07T08:25:29;2.90;99.90
56336;DHT22;42241;53.510;10.170;2022-12-07T08:27:55;2.90;99.90
56336;DHT22;42241;53.510;10.170;2022-12-07T08:30:21;3.00;99.90
56336;DHT22;42241;53.510;10.170;2022-12-07T08:32:47;3.10;99.90
56336;DHT22;42241;53.510;10.170;2022-12-07T08:35:13;3.20;99.90
56336;DHT22;42241;53.510;10.170;2022-12-07T08:37:38;3.20;99.90
56336;DHT22;42241;53.510;10.170;2022-12-07T08:49:18;3.60;99.90
56336;DHT22;42241;53.510;10.170;2022-12-07T08:51:45;3.50;99.90
56336;DHT22;42241;53.510;10.170;2022-12-07T08:54:11;3.50;99.90
56336;DHT22;42241;53.510;10.170;2022-12-07T08:56:38;3.60;99.90
56336;DHT22;42241;53.510;10.170;2022-12-07T08:59:04;3.60;99.90
56336;DHT22;42241;53.510;10.170;2022-12-07T09:01:29;3.70;99.90
56336;DHT22;42241;53.510;10.170;2022-12-07T09:03:55;3.80;99.90
56336;DHT22;42241;53.510;10.170;2022-12-07T09:06:21;3.90;99.90
56336;DHT22;42241;53.510;10.170;2022-12-07T09:08:47;4.10;99.90
56336;DHT22;42241;53.510;10.170;2022-12-07T09:11:14;4.10;99.90
56336;DHT22;42241;53.510;10.170;2022-12-07T09:13:39;4.30;99.90
56336;DHT22;42241;53.510;10.170;2022-12-07T09:16:05;4.50;99.90
56336;DHT22;42241;53.510;10.170;2022-12-07T09:18:30;4.60;99.90
56336;DHT22;42241;53.510;10.170;2022-12-07T09:20:56;4.80;99.90
56336;DHT22;42241;53.510;10.170;2022-12-07T09:23:22;5.00;99.90
56336;DHT22;42241;53.510;10.170;2022-12-07T09:25:47;5.20;99.90
56336;DHT22;42241;53.510;10.170;2022-12-07T09:28:13;5.20;99.90
56336;DHT22;42241;53.510;10.170;2022-12-07T09:30:38;5.20;99.90
56336;DHT22;42241;53.510;10.170;2022-12-07T09:33:04;5.20;99.90
56336;DHT22;42241;53.510;10.170;2022-12-07T09:35:30;5.30;99.90
56336;DHT22;42241;53.510;10.170;2022-12-07T09:37:55;5.20;99.90
56336;DHT22;42241;53.510;10.170;2022-12-07T09:40:21;5.20;99.90
56336;DHT22;42241;53.510;10.170;2022-12-07T09:42:48;5.20;99.90
56336;DHT22;42241;53.510;10.170;2022-12-07T09:45:17;5.10;99.90
56336;DHT22;42241;53.510;10.170;2022-12-07T09:47:44;4.90;99.90
56336;DHT22;42241;53.510;10.170;2022-12-07T09:50:17;4.80;99.90
56336;DHT22;42241;53.510;10.170;2022-12-07T09:52:43;4.80;99.90
56336;DHT22;42241;53.510;10.170;2022-12-07T09:55:12;4.90;99.90
56336;DHT22;42241;53.510;10.170;2022-12-07T09:57:37;4.90;99.90
56336;DHT22;42241;53.510;10.170;2022-12-07T10:00:04;5.00;99.90
56336;DHT22;42241;53.510;10.170;2022-12-07T10:04:58;4.90;99.90
56336;DHT22;42241;53.510;10.170;2022-12-07T10:07:24;4.90;99.90
56336;DHT22;42241;53.510;10.170;2022-12-07T10:09:50;4.90;99.90
56336;DHT22;42241;53.510;10.170;2022-12-07T10:12:16;4.80;99.90
56336;DHT22;42241;53.510;10.170;2022-12-07T10:15:00;4.80;99.90
56336;DHT22;42241;53.510;10.170;2022-12-07T10:17:37;4.80;99.90
56336;DHT22;42241;53.510;10.170;2022-12-07T10:22:34;4.60;99.90
56336;DHT22;42241;53.510;10.170;2022-12-07T10:25:07;4.70;99.90
56336;DHT22;42241;53.510;10.170;2022-12-07T10:27:32;4.80;99.90
56336;DHT22;42241;53.510;10.170;2022-12-07T10:29:58;4.80;99.90
56336;DHT22;42241;53.510;10.170;2022-12-07T10:32:34;4.90;99.90
56336;DHT22;42241;53.510;10.170;2022-12-07T10:37:44;5.10;99.90
56336;DHT22;42241;53.510;10.170;2022-12-07T10:42:59;5.20;99.90
56336;DHT22;42241;53.510;10.170;2022-12-07T10:45:25;5.00;99.90
56336;DHT22;42241;53.510;10.170;2022-12-07T10:48:08;4.90;99.90
56336;DHT22;42241;53.510;10.170;2022-12-07T10:55:47;5.00;99.90
56336;DHT22;42241;53.510;10.170;2022-12-07T11:00:47;5.40;99.90
56336;DHT22;42241;53.510;10.170;2022-12-07T11:11:21;7.50;99.90
56336;DHT22;42241;53.510;10.170;2022-12-07T11:21:38;9.20;99.90
56336;DHT22;42241;53.510;10.170;2022-12-07T11:24:16;8.60;99.90
56336;DHT22;42241;53.510;10.170;2022-12-07T11:26:49;7.90;99.90
56336;DHT22;42241;53.510;10.170;2022-12-07T11:36:54;6.50;99.90
56336;DHT22;42241;53.510;10.170;2022-12-07T11:41:48;6.20;99.90
56336;DHT22;42241;53.510;10.170;2022-12-07T11:46:59;5.90;99.90
56336;DHT22;42241;53.510;10.170;2022-12-07T11:49:30;5.80;99.90
56336;DHT22;42241;53.510;10.170;2022-12-07T11:52:02;5.90;99.90
56336;DHT22;42241;53.510;10.170;2022-12-07T11:54:33;5.70;99.90
56336;DHT22;42241;53.510;10.170;2022-12-07T11:57:07;5.80;99.90
56336;DHT22;42241;53.510;10.170;2022-12-07T11:59:38;5.80;99.90
56336;DHT22;42241;53.510;10.170;2022-12-07T12:02:11;6.00;99.90
56336;DHT22;42241;53.510;10.170;2022-12-07T12:07:13;6.00;99.90
56336;DHT22;42241;53.510;10.170;2022-12-07T12:09:43;6.00;99.90
56336;DHT22;42241;53.510;10.170;2022-12-07T12:12:21;6.20;99.90
56336;DHT22;42241;53.510;10.170;2022-12-07T12:17:40;6.70;99.90
56336;DHT22;42241;53.510;10.170;2022-12-07T12:22:37;7.00;99.90
56336;DHT22;42241;53.510;10.170;2022-12-07T12:25:09;7.30;99.90
56336;DHT22;42241;53.510;10.170;2022-12-07T12:27:38;7.60;99.90
56336;DHT22;42241;53.510;10.170;2022-12-07T12:30:05;7.80;99.90
56336;DHT22;42241;53.510;10.170;2022-12-07T12:32:41;7.70;99.90
56336;DHT22;42241;53.510;10.170;2022-12-07T12:37:45;7.70;99.90
56336;DHT22;42241;53.510;10.170;2022-12-07T12:42:52;8.60;99.90
56336;DHT22;42241;53.510;10.170;2022-12-07T12:45:30;9.20;99.90
56336;DHT22;42241;53.510;10.170;2022-12-07T12:50:29;10.40;99.90
56336;DHT22;42241;53.510;10.170;2022-12-07T12:52:59;10.90;99.90
56336;DHT22;42241;53.510;10.170;2022-12-07T12:58:40;11.20;99.90
56336;DHT22;42241;53.510;10.170;2022-12-07T13:03:53;9.30;99.90
56336;DHT22;42241;53.510;10.170;2022-12-07T13:08:51;7.60;99.90
56336;DHT22;42241;53.510;10.170;2022-12-07T13:13:56;6.50;99.90
56336;DHT22;42241;53.510;10.170;2022-12-07T13:16:38;6.30;99.90
56336;DHT22;42241;53.510;10.170;2022-12-07T13:19:26;6.20;99.90
56336;DHT22;42241;53.510;10.170;2022-12-07T13:21:50;6.00;99.90
56336;DHT22;42241;53.510;10.170;2022-12-07T13:24:15;5.90;99.90
56336;DHT22;42241;53.510;10.170;2022-12-07T13:26:42;5.80;99.90
56336;DHT22;42241;53.510;10.170;2022-12-07T13:29:13;5.80;99.90
56336;DHT22;42241;53.510;10.170;2022-12-07T13:31:42;5.70;99.90
56336;DHT22;42241;53.510;10.170;2022-12-07T13:36:52;5.40;99.90
56336;DHT22;42241;53.510;10.170;2022-12-07T13:39:19;5.20;99.90
56336;DHT22;42241;53.510;10.170;2022-12-07T13:41:49;5.10;99.90
56336;DHT22;42241;53.510;10.170;2022-12-07T13:44:17;5.10;99.90
56336;DHT22;42241;53.510;10.170;2022-12-07T13:46:52;5.00;99.90
56336;DHT22;42241;53.510;10.170;2022-12-07T13:49:22;5.00;99.90
56336;DHT22;42241;53.510;10.170;2022-12-07T13:51:48;5.00;99.90
56336;DHT22;42241;53.510;10.170;2022-12-07T13:54:14;5.00;99.90
56336;DHT22;42241;53.510;10.170;2022-12-07T13:56:40;5.00;99.90
56336;DHT22;42241;53.510;10.170;2022-12-07T13:59:39;5.00;99.90
56336;DHT22;42241;53.510;10.170;2022-12-07T14:01:58;5.00;99.90
56336;DHT22;42241;53.510;10.170;2022-12-07T14:06:51;4.90;99.90
56336;DHT22;42241;53.510;10.170;2022-12-07T14:09:17;4.90;99.90
56336;DHT22;42241;53.510;10.170;2022-12-07T14:11:44;4.90;99.90
56336;DHT22;42241;53.510;10.170;2022-12-07T14:14:10;4.90;99.90
56336;DHT22;42241;53.510;10.170;2022-12-07T14:16:37;4.80;99.90
56336;DHT22;42241;53.510;10.170;2022-12-07T14:19:05;4.80;99.90
56336;DHT22;42241;53.510;10.170;2022-12-07T14:21:32;4.80;99.90
56336;DHT22;42241;53.510;10.170;2022-12-07T14:24:11;4.90;99.90
56336;DHT22;42241;53.510;10.170;2022-12-07T14:26:40;4.90;99.90
56336;DHT22;42241;53.510;10.170;2022-12-07T14:29:19;4.90;99.90
56336;DHT22;42241;53.510;10.170;2022-12-07T14:31:44;4.80;99.90
56336;DHT22;42241;53.510;10.170;2022-12-07T14:34:12;4.70;99.90
56336;DHT22;42241;53.510;10.170;2022-12-07T14:36:38;4.70;99.90
56336;DHT22;42241;53.510;10.170;2022-12-07T14:39:04;4.70;99.90
56336;DHT22;42241;53.510;10.170;2022-12-07T14:41:32;4.60;99.90
56336;DHT22;42241;53.510;10.170;2022-12-07T14:44:15;4.60;99.90
56336;DHT22;42241;53.510;10.170;2022-12-07T14:46:41;4.40;99.90
56336;DHT22;42241;53.510;10.170;2022-12-07T14:49:08;4.30;99.90
56336;DHT22;42241;53.510;10.170;2022-12-07T14:51:34;4.10;99.90
56336;DHT22;42241;53.510;10.170;2022-12-07T14:54:01;4.10;99.90
56336;DHT22;42241;53.510;10.170;2022-12-07T14:56:30;3.90;99.90
56336;DHT22;42241;53.510;10.170;2022-12-07T14:58:56;3.80;99.90
56336;DHT22;42241;53.510;10.170;2022-12-07T15:01:22;3.80;99.90
56336;DHT22;42241;53.510;10.170;2022-12-07T15:03:48;3.70;99.90
56336;DHT22;42241;53.510;10.170;2022-12-07T15:06:15;3.60;99.90
56336;DHT22;42241;53.510;10.170;2022-12-07T15:08:43;3.50;99.90
56336;DHT22;42241;53.510;10.170;2022-12-07T15:11:11;3.30;99.90
56336;DHT22;42241;53.510;10.170;2022-12-07T15:13:37;3.20;99.90
56336;DHT22;42241;53.510;10.170;2022-12-07T15:16:21;3.20;99.90
56336;DHT22;42241;53.510;10.170;2022-12-07T15:18:47;3.10;99.90
56336;DHT22;42241;53.510;10.170;2022-12-07T15:21:15;3.10;99.90
56336;DHT22;42241;53.510;10.170;2022-12-07T15:23:41;3.00;99.90
56336;DHT22;42241;53.510;10.170;2022-12-07T15:26:06;3.00;99.90
56336;DHT22;42241;53.510;10.170;2022-12-07T15:28:33;3.00;99.90
56336;DHT22;42241;53.510;10.170;2022-12-07T15:30:59;2.90;99.90
56336;DHT22;42241;53.510;10.170;2022-12-07T15:33:24;3.00;99.90
56336;DHT22;42241;53.510;10.170;2022-12-07T15:35:50;3.00;99.90
56336;DHT22;42241;53.510;10.170;2022-12-07T15:38:16;2.90;99.90
56336;DHT22;42241;53.510;10.170;2022-12-07T15:40:41;2.90;99.90
56336;DHT22;42241;53.510;10.170;2022-12-07T15:43:10;2.90;99.90
56336;DHT22;42241;53.510;10.170;2022-12-07T15:45:55;2.90;99.90
56336;DHT22;42241;53.510;10.170;2022-12-07T15:48:21;2.80;99.90
56336;DHT22;42241;53.510;10.170;2022-12-07T15:50:46;2.80;99.90
56336;DHT22;42241;53.510;10.170;2022-12-07T15:53:12;2.70;99.90
56336;DHT22;42241;53.510;10.170;2022-12-07T15:55:38;2.50;99.90
56336;DHT22;42241;53.510;10.170;2022-12-07T15:58:03;2.50;99.90
56336;DHT22;42241;53.510;10.170;2022-12-07T16:00:29;2.50;99.90
56336;DHT22;42241;53.510;10.170;2022-12-07T16:02:55;2.50;99.90
56336;DHT22;42241;53.510;10.170;2022-12-07T16:05:20;2.40;99.90
56336;DHT22;42241;53.510;10.170;2022-12-07T16:07:46;2.40;99.90
56336;DHT22;42241;53.510;10.170;2022-12-07T16:10:12;2.30;99.90
56336;DHT22;42241;53.510;10.170;2022-12-07T16:12:38;2.30;99.90
56336;DHT22;42241;53.510;10.170;2022-12-07T16:15:03;2.30;99.90
56336;DHT22;42241;53.510;10.170;2022-12-07T16:17:29;2.30;99.90
56336;DHT22;42241;53.510;10.170;2022-12-07T16:19:55;2.30;99.90
56336;DHT22;42241;53.510;10.170;2022-12-07T16:22:20;2.30;99.90
56336;DHT22;42241;53.510;10.170;2022-12-07T16:24:46;2.30;99.90
56336;DHT22;42241;53.510;10.170;2022-12-07T16:27:11;2.30;99.90
56336;DHT22;42241;53.510;10.170;2022-12-07T16:29:37;2.30;99.90
56336;DHT22;42241;53.510;10.170;2022-12-07T16:32:02;2.20;99.90
56336;DHT22;42241;53.510;10.170;2022-12-07T16:34:28;2.20;99.90
56336;DHT22;42241;53.510;10.170;2022-12-07T16:36:53;2.20;99.90
56336;DHT22;42241;53.510;10.170;2022-12-07T16:39:19;2.10;99.90
56336;DHT22;42241;53.510;10.170;2022-12-07T16:41:45;2.10;99.90
56336;DHT22;42241;53.510;10.170;2022-12-07T16:44:11;2.10;99.90
56336;DHT22;42241;53.510;10.170;2022-12-07T16:46:40;2.10;99.90
56336;DHT22;42241;53.510;10.170;2022-12-07T16:49:05;2.00;99.90
56336;DHT22;42241;53.510;10.170;2022-12-07T16:51:31;2.00;99.90
56336;DHT22;42241;53.510;10.170;2022-12-07T16:53:56;2.00;99.90
56336;DHT22;42241;53.510;10.170;2022-12-07T16:56:22;1.90;99.90
56336;DHT22;42241;53.510;10.170;2022-12-07T16:58:48;2.00;99.90
56336;DHT22;42241;53.510;10.170;2022-12-07T17:01:16;1.90;99.90
56336;DHT22;42241;53.510;10.170;2022-12-07T17:03:43;1.90;99.90
56336;DHT22;42241;53.510;10.170;2022-12-07T17:06:13;1.90;99.90
56336;DHT22;42241;53.510;10.170;2022-12-07T17:08:39;1.90;99.90
56336;DHT22;42241;53.510;10.170;2022-12-07T17:11:15;1.90;99.90
56336;DHT22;42241;53.510;10.170;2022-12-07T17:13:41;1.90;99.90
56336;DHT22;42241;53.510;10.170;2022-12-07T17:16:25;1.80;99.90
56336;DHT22;42241;53.510;10.170;2022-12-07T17:18:51;1.80;99.90
56336;DHT22;42241;53.510;10.170;2022-12-07T17:21:17;1.80;99.90
56336;DHT22;42241;53.510;10.170;2022-12-07T17:23:43;1.80;99.90
56336;DHT22;42241;53.510;10.170;2022-12-07T17:26:10;1.70;99.90
56336;DHT22;42241;53.510;10.170;2022-12-07T17:28:36;1.70;99.90
56336;DHT22;42241;53.510;10.170;2022-12-07T17:31:05;1.70;99.90
56336;DHT22;42241;53.510;10.170;2022-12-07T17:33:31;1.70;99.90
56336;DHT22;42241;53.510;10.170;2022-12-07T17:35:58;1.70;99.90
56336;DHT22;42241;53.510;10.170;2022-12-07T17:38:24;1.80;99.90
56336;DHT22;42241;53.510;10.170;2022-12-07T17:40:50;1.70;99.90